createdAt,value
2023-03-14T12:34:25.986Z,84.00
2023-03-14T12:40:33.333Z,83.90
2023-03-14T12:46:29.802Z,83.70
2023-03-14T12:49:19.614Z,83.90
2023-03-14T12:51:59.648Z,83.70
2023-03-14T12:54:40.652Z,84.40
2023-03-14T12:57:36.238Z,84.10
2023-03-14T13:03:37.510Z,84.80
2023-03-14T13:06:23.853Z,84.80
2023-03-14T13:09:14.803Z,84.90
2023-03-14T13:12:00.846Z,83.90
2023-03-14T13:14:55.905Z,84.10
2023-03-14T13:20:44.654Z,84.60
2023-03-14T13:26:31.206Z,84.90
2023-03-14T13:39:27.143Z,85.30
2023-03-14T13:42:11.077Z,85.10
2023-03-14T13:44:57.917Z,84.90
2023-03-14T13:50:35.356Z,85.10
2023-03-14T13:53:20.624Z,85.40
2023-03-14T13:56:10.273Z,85.90
2023-03-14T13:58:50.259Z,85.40
2023-03-14T14:01:42.451Z,85.40
2023-03-14T14:04:29.678Z,85.60
2023-03-14T14:13:21.440Z,85.70
2023-03-14T14:16:05.575Z,85.20
2023-03-14T14:18:43.019Z,84.40
2023-03-14T14:21:23.534Z,83.90
2023-03-14T14:24:07.363Z,84.50
2023-03-14T14:26:57.920Z,84.60
2023-03-14T14:32:39.509Z,84.80
2023-03-14T14:35:48.770Z,85.20
2023-03-14T14:38:33.035Z,84.90
2023-03-14T14:41:11.998Z,84.90
2023-03-14T14:43:55.945Z,85.10
2023-03-14T14:49:26.927Z,85.10
2023-03-14T14:52:24.969Z,85.60
2023-03-14T14:55:08.453Z,85.80
2023-03-14T14:57:56.052Z,85.90
2023-03-14T15:00:51.238Z,86.20
2023-03-14T15:03:43.726Z,86.10
2023-03-14T15:09:35.484Z,85.80
2023-03-14T15:18:34.133Z,86.10
2023-03-14T15:27:33.848Z,85.50
2023-03-14T15:33:02.263Z,84.70
2023-03-14T15:35:55.446Z,84.50
2023-03-14T15:38:39.166Z,84.60
2023-03-14T15:41:17.118Z,84.00
2023-03-14T15:43:52.566Z,83.80
2023-03-14T15:46:27.426Z,83.70
2023-03-14T15:49:01.295Z,83.60
2023-03-14T15:51:34.226Z,83.40
2023-03-14T15:54:10.186Z,83.10
2023-03-14T15:56:52.642Z,83.60
2023-03-14T15:59:44.586Z,83.00
2023-03-14T16:05:39.766Z,83.20
2023-03-14T16:08:18.802Z,82.90
2023-03-14T16:10:58.228Z,82.80
2023-03-14T16:13:30.091Z,82.70
2023-03-14T16:16:01.779Z,82.40
2023-03-14T16:18:33.918Z,82.40
2023-03-14T16:21:09.381Z,82.50
2023-03-14T16:23:39.093Z,82.10
2023-03-14T16:26:15.725Z,81.00
2023-03-14T16:28:46.677Z,80.80
2023-03-14T16:31:21.669Z,81.50
2023-03-14T16:33:52.116Z,81.40
2023-03-14T16:36:22.225Z,81.30
2023-03-14T16:38:56.037Z,81.20
2023-03-14T16:41:28.877Z,80.70
2023-03-14T16:44:00.417Z,80.70
2023-03-14T16:46:31.475Z,80.60
2023-03-14T16:49:00.813Z,79.80
2023-03-14T16:51:31.587Z,77.80
2023-03-14T16:54:00.975Z,77.70
2023-03-14T16:56:30.411Z,78.60
2023-03-14T16:58:59.708Z,77.40
2023-03-14T17:01:29.263Z,77.80
2023-03-14T17:03:58.676Z,77.20
2023-03-14T17:06:29.581Z,77.80
2023-03-14T17:09:03.981Z,78.20
2023-03-14T17:11:35.686Z,77.40
2023-03-14T17:14:06.116Z,77.30
2023-03-14T17:16:35.683Z,77.40
2023-03-14T17:19:05.076Z,77.40
2023-03-14T17:21:35.264Z,77.20
2023-03-14T17:24:04.762Z,77.40
2023-03-14T17:26:34.217Z,77.30
2023-03-14T17:29:04.589Z,77.70
2023-03-14T17:31:33.252Z,77.20
2023-03-14T17:34:02.581Z,76.70
2023-03-14T17:36:35.063Z,76.20
2023-03-14T17:39:04.566Z,76.50
2023-03-14T17:41:33.919Z,76.90
2023-03-14T17:44:03.232Z,76.60
2023-03-14T17:46:34.665Z,76.70
2023-03-14T17:49:04.007Z,76.70
2023-03-14T17:51:34.744Z,76.70
2023-03-14T17:54:04.152Z,76.10
2023-03-14T17:56:34.690Z,76.10
2023-03-14T17:59:04.060Z,76.30
2023-03-14T18:01:33.557Z,76.00
2023-03-14T18:04:06.447Z,76.00
2023-03-14T18:06:36.116Z,76.20
2023-03-14T18:09:08.374Z,76.20
2023-03-14T18:11:37.825Z,77.00
2023-03-14T18:14:11.633Z,76.10
2023-03-14T18:16:41.709Z,76.30
2023-03-14T18:19:12.436Z,76.20
2023-03-14T18:21:44.215Z,75.00
2023-03-14T18:24:14.668Z,75.60
2023-03-14T18:26:44.813Z,75.40
2023-03-14T18:29:14.614Z,74.90
2023-03-14T18:31:45.718Z,73.70
2023-03-14T18:34:15.047Z,72.30
2023-03-14T18:36:46.502Z,72.60
2023-03-14T18:39:15.972Z,72.10
2023-03-14T18:41:45.489Z,72.50
2023-03-14T18:44:14.839Z,72.80
2023-03-14T18:46:47.276Z,73.10
2023-03-14T18:49:19.583Z,72.80
2023-03-14T18:51:50.909Z,71.90
2023-03-14T18:54:21.032Z,71.70
2023-03-14T18:56:51.773Z,72.40
2023-03-14T18:59:22.409Z,72.00
2023-03-14T19:01:52.996Z,72.00
2023-03-14T19:04:22.965Z,72.20
2023-03-14T19:06:54.125Z,72.80
2023-03-14T19:09:25.075Z,73.00
2023-03-14T19:11:54.433Z,73.10
2023-03-14T19:14:24.086Z,72.90
2023-03-14T19:16:55.367Z,72.60
2023-03-14T19:19:25.725Z,73.10
2023-03-14T19:21:55.851Z,72.90
2023-03-14T19:24:25.156Z,73.50
2023-03-14T19:26:55.752Z,73.20
2023-03-14T19:29:25.781Z,73.40
2023-03-14T19:31:56.876Z,73.40
2023-03-14T19:34:26.969Z,73.40
2023-03-14T19:36:57.953Z,73.40
2023-03-14T19:39:27.478Z,73.40
2023-03-14T19:41:58.529Z,73.20
2023-03-14T19:44:28.000Z,74.00
2023-03-14T19:46:57.426Z,74.10
2023-03-14T19:49:28.536Z,73.70
2023-03-14T19:51:58.898Z,73.70
2023-03-14T19:54:28.975Z,74.00
2023-03-14T19:57:01.078Z,73.60
2023-03-14T19:59:31.884Z,73.20
2023-03-14T20:02:01.400Z,73.90
2023-03-14T20:04:31.013Z,73.90
2023-03-14T20:07:02.025Z,73.10
2023-03-14T20:09:32.947Z,74.10
2023-03-14T20:12:04.435Z,74.30
2023-03-14T20:14:36.920Z,73.70
2023-03-14T20:17:08.263Z,73.30
2023-03-14T20:19:38.010Z,73.80
2023-03-14T20:22:08.237Z,73.80
2023-03-14T20:24:38.076Z,74.30
2023-03-14T20:27:07.571Z,74.00
2023-03-14T20:29:38.058Z,74.30
2023-03-14T20:32:09.505Z,74.10
2023-03-14T20:34:40.044Z,74.10
2023-03-14T20:37:09.411Z,73.90
2023-03-14T20:39:38.784Z,74.30
2023-03-14T20:42:08.147Z,74.20
2023-03-14T20:44:38.641Z,73.70
2023-03-14T20:47:08.081Z,73.70
2023-03-14T20:49:37.536Z,73.70
2023-03-14T20:52:07.054Z,74.20
2023-03-14T20:54:39.360Z,74.20
2023-03-14T20:57:09.859Z,74.40
2023-03-14T20:59:39.226Z,74.50
2023-03-14T21:02:10.744Z,74.40
2023-03-14T21:04:41.245Z,74.40
2023-03-14T21:07:12.155Z,74.80
2023-03-14T21:09:41.631Z,74.90
2023-03-14T21:12:12.481Z,75.30
2023-03-14T21:14:43.271Z,74.60
2023-03-14T21:17:13.405Z,73.90
2023-03-14T21:19:44.513Z,74.50
2023-03-14T21:22:16.522Z,74.40
2023-03-14T21:24:46.380Z,74.30
2023-03-14T21:27:16.333Z,74.50
2023-03-14T21:29:46.391Z,74.70
2023-03-14T21:32:15.856Z,74.80
2023-03-14T21:34:47.287Z,74.90
2023-03-14T21:37:18.246Z,75.40
2023-03-14T21:39:47.617Z,75.10
2023-03-14T21:42:18.244Z,75.60
2023-03-14T21:44:48.594Z,75.40
2023-03-14T21:47:17.373Z,75.20
2023-03-14T21:49:49.737Z,75.40
2023-03-14T21:52:19.190Z,75.30
2023-03-14T21:54:49.347Z,75.20
2023-03-14T21:57:18.815Z,75.40
2023-03-14T21:59:49.713Z,75.70
2023-03-14T22:02:21.249Z,75.70
2023-03-14T22:04:51.619Z,75.60
2023-03-14T22:07:22.322Z,75.40
2023-03-14T22:09:51.963Z,75.70
2023-03-14T22:12:22.971Z,75.90
2023-03-14T22:14:52.405Z,75.90
2023-03-14T22:17:23.163Z,75.60
2023-03-14T22:19:53.587Z,76.00
2023-03-14T22:22:24.627Z,75.70
2023-03-14T22:24:54.821Z,75.70
2023-03-14T22:27:25.420Z,76.00
2023-03-14T22:29:55.925Z,76.00
2023-03-14T22:32:26.786Z,76.20
2023-03-14T22:34:59.459Z,76.30
2023-03-14T22:37:30.844Z,76.30
2023-03-14T22:40:01.216Z,76.30
2023-03-14T22:42:30.670Z,76.80
2023-03-14T22:45:01.270Z,76.40
2023-03-14T22:47:30.636Z,76.70
2023-03-14T22:49:59.938Z,76.80
2023-03-14T22:52:32.932Z,76.50
2023-03-14T22:55:02.283Z,76.40
2023-03-14T22:57:32.205Z,76.50
2023-03-14T23:00:01.687Z,76.80
2023-03-14T23:02:31.030Z,76.90
2023-03-14T23:05:01.014Z,77.10
2023-03-14T23:07:31.343Z,77.20
2023-03-14T23:09:59.973Z,77.30
2023-03-14T23:12:29.204Z,77.20
2023-03-14T23:14:58.768Z,77.00
2023-03-14T23:17:28.825Z,77.50
2023-03-14T23:20:00.343Z,77.40
2023-03-14T23:22:32.153Z,77.80
2023-03-14T23:25:04.292Z,78.00
2023-03-14T23:27:34.388Z,77.90
2023-03-14T23:30:07.265Z,77.80
2023-03-14T23:32:36.655Z,78.00
2023-03-14T23:35:06.310Z,78.30
2023-03-14T23:37:36.491Z,78.20
2023-03-14T23:40:10.133Z,78.10
2023-03-14T23:42:40.656Z,77.90
2023-03-14T23:45:12.902Z,77.90
2023-03-14T23:47:42.290Z,78.00
2023-03-14T23:50:12.472Z,78.20
2023-03-14T23:52:41.886Z,78.30
2023-03-14T23:55:11.350Z,78.00
2023-03-14T23:57:40.711Z,78.30
